< < Back
Terminal Aerodrome Forecast


Current Version              Previous Versions:   1  2  3  4  5  6  7  8  9  

Terminal Aerodrome Forecast

197
FTUS44 KOHX 292324
TAFCSV
TAF
KCSV 292324Z 3000/3024 32006KT P6SM -SHRA OVC100
     FM300200 09005KT P6SM BKN080 OVC100
     FM300900 14004KT P6SM OVC080
     FM301800 18010KT 6SM -SHRA BR VCTS SCT025CB BKN040=

Latest METAR

456
SAUS70 KWBC 301100 RRK
MTRCSV
METAR KCSV 301053Z AUTO 00000KT 10SM CLR 18/10 A2996 RMK AO2 SLP128
T01780100


USA.gov is the U.S. government's official web portal to all federal, state and local government web resources and services.